Tiempo atmosférico en la estación meteorológica de Garganta De La Olla, Cáceres (690 m.)



Fecha
DESCASC
Temp. máxima en grados centígrados (hora)
DESCASC
Temp. mínima en grados centígrados (hora)
DESCASC
Temp. media en grados centígrados
DESCASC
Racha de viento máxima en m/sg (hora)
DESCASC
Velocidad máxima media en intervalos de 10 minutos(hora)
DESCASC
Precipitaciones diarias en mm
DESCASC
Precipitaciones de 00:00 a 06:00 en mm
DESCASC
Precipitaciones de 06:00 a 12:00 en mm
DESCASC
Precipitaciones de 12:00 a 18:00 en mm
DESCASC
Precipitaciones de 18:00 a 24:00 en mm
DESCASC

Gráficas

Temp. máximas Temp. mínimas Temp. medias Precipitaciones Rachas de viento máximas Velocidades máximas media en intervalos de 10 minutos

Datos horarios

Fecha y hora oficial Temperatura (ºC) Velocidad del viento (km/h) Dirección del viento Racha (km/h) Dirección de racha Precipitación (mm) Presión (hPa) Tendencia (hPa) Humedad (%)
2020-01-26 23:00:00 6.6 5 Noroeste 11 Noroeste 0 -- -- 84
2020-01-26 22:00:00 7.1 7 Norte 13 Norte 0 -- -- 84
2020-01-26 21:00:00 7 4 Norte 15 Norte 0 -- -- 83
2020-01-26 20:00:00 6 6 Noroeste 9 Noroeste 0 -- -- 82
2020-01-26 19:00:00 7 2 Noroeste 13 Oeste 0 -- -- 72
2020-01-26 18:00:00 8 7 Noroeste 16 Noroeste 0 -- -- 71
2020-01-26 17:00:00 9.4 4 Sudoeste 9 Oeste 0 -- -- 69
2020-01-26 16:00:00 8.5 4 Sur 8 Sur 0 -- -- 87
2020-01-26 15:00:00 7 3 Sudeste 10 Sudeste 0 -- -- 93
2020-01-26 14:00:00 6.2 4 Este 9 Este 0 -- -- 95
2020-01-26 13:00:00 5.5 4 Sudeste 9 Sudeste 0 -- -- 99
2020-01-26 12:00:00 4.9 4 Sur 12 Sur 0 -- -- 100
2020-01-26 11:00:00 4.1 4 Sur 8 Sur 0 -- -- 99
2020-01-26 10:00:00 3.9 3 Sur 6 Sudeste 0 -- -- 94
2020-01-26 09:00:00 1.9 4 Noroeste 15 Noroeste 0 -- -- 93
2020-01-26 08:00:00 4.1 6 Noroeste 18 Noroeste 0 -- -- 83
2020-01-26 07:00:00 4.8 10 Noroeste 18 Noroeste 0 -- -- 82
2020-01-26 06:00:00 4.8 7 Noroeste 24 Noroeste 0 -- -- 83
2020-01-26 05:00:00 4.1 8 Norte 18 Noroeste 0 -- -- 88
2020-01-26 04:00:00 4.3 4 Oeste 9 Oeste 0 -- -- 95
2020-01-26 03:00:00 4.4 3 Sudoeste 10 Norte 0 -- -- 93
2020-01-26 02:00:00 4.2 3 Norte 15 Noroeste 0 -- -- 93
2020-01-26 01:00:00 5.1 0 Calma 3 Noroeste 0 -- -- 92
2020-01-26 00:00:00 5.4 0 Calma 8 Noroeste 0 -- -- 91
2020-01-25 23:00:00 5.3 4 Noroeste 10 Noroeste 0 -- -- 91
2020-01-25 22:00:00 6.1 3 Oeste 8 Oeste 0 -- -- 92
2020-01-25 21:00:00 6.2 0 Calma 5 Oeste 0 -- -- 95
2020-01-25 20:00:00 6.7 0 Calma 6 Este 3.2 -- -- 94
2020-01-25 19:00:00 7.5 2 Sur 7 Sur 0.6 -- -- 97
2020-01-25 18:00:00 8 3 Sur 14 Sudeste 0.6 -- -- 97
2020-01-25 17:00:00 9.1 5 Sur 14 Sur 0 -- -- 87
2020-01-25 16:00:00 9.7 6 Sur 11 Sur 0 -- -- 83
2020-01-25 15:00:00 9 2 Norte 10 Sur 0 -- -- 86
2020-01-25 14:00:00 8.2 9 Sur 16 Sur 0 -- -- 94
2020-01-25 13:00:00 8.2 5 Sudeste 9 Sudeste 0 -- -- 95
2020-01-25 12:00:00 7 2 Noroeste 4 Sudoeste 0 -- -- 99
2020-01-25 11:00:00 6.1 0 Calma 9 Noroeste 0 -- -- 99
2020-01-25 10:00:00 5.5 7 Noroeste 12 Noroeste 0.4 -- -- 99
2020-01-25 09:00:00 5.5 2 Sur 7 Sudoeste 1.6 -- -- 98
2020-01-25 08:00:00 5.5 5 Noroeste 14 Noroeste 2.6 -- -- 99
2020-01-25 07:00:00 5.6 4 Sudoeste 10 Sudoeste 1.6 -- -- 98
2020-01-25 06:00:00 5.3 0 Calma 10 Sur 2 -- -- 98
2020-01-25 05:00:00 5.7 4 Sudoeste 13 Sudoeste 1.8 -- -- 94
2020-01-25 04:00:00 5.5 5 Nordeste 25 Sudeste 2.8 -- -- 96
2020-01-25 03:00:00 5.6 13 Sur 25 Sudeste 4 -- -- 99
2020-01-25 02:00:00 5.5 7 Sur 22 Sur 1.6 -- -- 97
2020-01-25 01:00:00 7.1 10 Sur 26 Sudeste 0.4 -- -- 86
2020-01-25 00:00:00 7.3 6 Sur 13 Sur 0 -- -- 79
2020-01-24 23:00:00 6.9 2 Sur 11 Noroeste 0 -- -- 81
2020-01-24 22:00:00 5.9 8 Noroeste 11 Noroeste 0 -- -- 90
2020-01-24 21:00:00 6.5 3 Sudoeste 10 Noroeste 0 -- -- 91
2020-01-24 20:00:00 5.9 2 Norte 7 Sudoeste 0 -- -- 92
2020-01-24 19:00:00 6.7 2 Sudoeste 13 Sudoeste 0 -- -- 87
2020-01-24 18:00:00 7.6 8 Sudoeste 17 Sur 0 -- -- 92
2020-01-24 17:00:00 8.2 4 Sudoeste 10 Sur 0 -- -- 91
2020-01-24 16:00:00 8.3 5 Sur 17 Sur 0 -- -- 92
2020-01-24 15:00:00 8.7 10 Sur 18 Sur 0 -- -- 88
2020-01-24 14:00:00 7.2 4 Sur 15 Sur 0.2 -- -- 97
2020-01-24 13:00:00 6 8 Sur 17 Sur 0.4 -- -- 99
2020-01-24 12:00:00 6.1 7 Sur 11 Sur 0 -- -- 96
2020-01-24 11:00:00 5.9 2 Sur 6 Sur 0 -- -- 97
2020-01-24 10:00:00 5.4 0 Calma 7 Noroeste 0.2 -- -- 98
2020-01-24 09:00:00 4.9 6 Noroeste 9 Noroeste 0 -- -- 96
2020-01-24 08:00:00 4.6 0 Calma 10 Noroeste 0 -- -- 95
2020-01-24 07:00:00 4.4 5 Noroeste 10 Noroeste 0.4 -- -- 96
2020-01-24 06:00:00 4.5 5 Noroeste 10 Noroeste 1.4 -- -- 96
2020-01-24 05:00:00 4.9 5 Norte 11 Norte 2.2 -- -- 95
2020-01-24 04:00:00 5.2 0 Calma 13 Sudeste 2 -- -- 97
2020-01-24 03:00:00 5.3 5 Sur 13 Este 2 -- -- 95
2020-01-24 02:00:00 5.9 8 Sudeste 26 Sudeste 4.2 -- -- 98
2020-01-24 01:00:00 6.3 14 Sudeste 30 Sudeste 2.8 -- -- 99
2020-01-24 00:00:00 6.4 15 Sudeste 29 Sur 1.4 -- -- 98
2020-01-23 23:00:00 6.4 8 Sur 21 Sur 0.8 -- -- 97
2020-01-23 22:00:00 6.2 6 Sur 28 Sudoeste 3.2 -- -- 97
2020-01-23 21:00:00 6.4 9 Sur 19 Sudoeste 2.6 -- -- 95
2020-01-23 20:00:00 6.3 10 Sudoeste 20 Sudoeste 0.8 -- -- 94
2020-01-23 19:00:00 6.3 7 Sudoeste 17 Sudoeste 0.2 -- -- 93
2020-01-23 18:00:00 5.9 8 Sudoeste 18 Sudoeste 0.4 -- -- 96
2020-01-23 17:00:00 5.6 8 Sur 22 Sudoeste 1.8 -- -- 97
2020-01-23 16:00:00 5.5 7 Sudoeste 14 Sudoeste 2 -- -- 97
2020-01-23 15:00:00 5.4 5 Sur 17 Oeste 1.2 -- -- 99
2020-01-23 14:00:00 5 7 Sudoeste 21 Sur 1.8 -- -- 98
2020-01-23 13:00:00 4.5 7 Sur 21 Sur 2.4 -- -- 97
2020-01-23 12:00:00 4.4 9 Sur 17 Sur 1.4 -- -- 97
2020-01-23 11:00:00 4.6 7 Sudoeste 18 Sur 1.4 -- -- 97
2020-01-23 10:00:00 4.5 8 Sudoeste 19 Sudoeste 1 -- -- 97
2020-01-23 09:00:00 4.4 8 Sur 21 Sudoeste 1.8 -- -- 98
2020-01-23 08:00:00 4.4 12 Sur 21 Sudoeste 0.8 -- -- 98
2020-01-23 07:00:00 4.7 12 Sur 25 Sur 0.4 -- -- 97
2020-01-23 06:00:00 4.9 12 Sur 31 Sur 0.4 -- -- 96
2020-01-23 05:00:00 5.2 13 Sur 28 Sur 0.6 -- -- 94
2020-01-23 04:00:00 5.3 7 Sur 23 Sur 2.2 -- -- 92
2020-01-23 03:00:00 5.4 11 Sur 19 Sur 1.2 -- -- 91
2020-01-23 02:00:00 6.5 8 Sudoeste 19 Sur 0 -- -- 81
2020-01-23 01:00:00 7.2 8 Sur 20 Sur 0 -- -- 78
2020-01-23 00:00:00 8 10 Sudoeste 30 Este 0 -- -- 74
2020-01-22 23:00:00 8.3 9 Sudeste 22 Sur 0 -- -- 71
2020-01-22 22:00:00 8.2 6 Sur 15 Sudeste 0 -- -- 70
2020-01-22 21:00:00 8.1 6 Sur 17 Sur 0 -- -- 69
2020-01-22 20:00:00 7.8 6 Sur 18 Sur 0 -- -- 69
2020-01-22 19:00:00 7.1 0 Calma 14 Sur 0 -- -- 73
2020-01-22 18:00:00 7.7 6 Sur 22 Sur 0 -- -- 74
2020-01-22 17:00:00 8 10 Sur 23 Sur 0 -- -- 74
2020-01-22 16:00:00 7.8 12 Sur 33 Sur 0 -- -- 75
2020-01-22 15:00:00 7.7 17 Sur 31 Sur 0 -- -- 78
2020-01-22 14:00:00 7.3 18 Sudeste 37 Sur 0.2 -- -- 83
2020-01-22 13:00:00 6.2 13 Sudeste 44 Sudeste 0.4 -- -- 88
2020-01-22 12:00:00 6 19 Sur 38 Sur 0.2 -- -- 89
2020-01-22 11:00:00 5.7 15 Sudeste 38 Este 0.4 -- -- 90
2020-01-22 10:00:00 6.5 18 Sur 47 Sur 0 -- -- 83
2020-01-22 09:00:00 6.3 15 Sudeste 48 Sudeste 0 -- -- 84
2020-01-22 08:00:00 6 19 Sur 37 Sur 0.2 -- -- 85
2020-01-22 07:00:00 6.7 13 Sur 26 Sur 0 -- -- 79
2020-01-22 06:00:00 6.6 12 Sur 27 Sur 0 -- -- 80
2020-01-22 05:00:00 6.8 8 Sur 31 Sur 0 -- -- 79
2020-01-22 04:00:00 6.2 8 Sudoeste 22 Sudoeste 0 -- -- 83
2020-01-22 03:00:00 5.6 8 Sudoeste 18 Sudoeste 0.2 -- -- 89
2020-01-22 02:00:00 5.8 5 Sur 14 Noroeste 0 -- -- 84
2020-01-22 01:00:00 5.7 6 Noroeste 15 Sudoeste 0 -- -- 86
2020-01-22 00:00:00 5.8 6 Sudoeste 27 Sudoeste 0 -- -- 86
2020-01-21 23:00:00 6.3 15 Sur 30 Sudeste 0 -- -- 81
2020-01-21 22:00:00 6.1 5 Sur 15 Norte 0 -- -- 83
2020-01-21 21:00:00 6.2 3 Sudoeste 10 Sur 0 -- -- 83
2020-01-21 20:00:00 6.6 4 Sudoeste 11 Sudoeste 0 -- -- 77
2020-01-21 19:00:00 6.8 2 Noroeste 5 Oeste 0 -- -- 74
2020-01-21 18:00:00 7.1 2 Noroeste 8 Norte 0 -- -- 76
2020-01-21 17:00:00 7.4 5 Sur 14 Sudeste 0 -- -- 74
2020-01-21 16:00:00 8.5 6 Sudeste 12 Sur 0 -- -- 69
2020-01-21 15:00:00 8.5 3 Este 10 Norte 0 -- -- 70
2020-01-21 14:00:00 7.3 0 Calma 15 Sur 0 -- -- 73
2020-01-21 13:00:00 7.9 8 Sur 15 Sur 0 -- -- 65
2020-01-21 12:00:00 7.4 4 Sur 15 Sur 0 -- -- 70
2020-01-21 11:00:00 5.3 4 Oeste 9 Sudeste 0 -- -- 78
2020-01-21 10:00:00 4.1 2 Nordeste 14 Sur 0 -- -- 80
2020-01-21 09:00:00 3.3 3 Nordeste 11 Noroeste 0 -- -- 81
2020-01-21 08:00:00 4.2 2 Este 11 Sur 0 -- -- 79
2020-01-21 07:00:00 4.4 4 Sudoeste 12 Sudoeste 0 -- -- 80
2020-01-21 06:00:00 4.4 4 Noroeste 9 Oeste 0 -- -- 79
2020-01-21 05:00:00 4.4 4 Noroeste 10 Sudoeste 0 -- -- 80
2020-01-21 04:00:00 4.5 3 Sudoeste 14 Norte 0 -- -- 75
2020-01-21 03:00:00 4.7 7 Sudoeste 15 Sudoeste 0 -- -- 72
2020-01-21 02:00:00 5.1 4 Oeste 14 Sudoeste 0 -- -- 67
2020-01-21 01:00:00 4.9 0 Calma 12 Noroeste 0 -- -- 69
2020-01-21 00:00:00 4.7 2 Noroeste 5 Este 0 -- -- 68
2020-01-20 23:00:00 4.8 3 Oeste 9 Noroeste 0 -- -- 67
2020-01-20 22:00:00 4.4 4 Oeste 10 Noroeste 0 -- -- 66
2020-01-20 21:00:00 4.8 3 Oeste 8 Norte 0 -- -- 64
2020-01-20 20:00:00 4.7 0 Calma 8 Sudeste 0 -- -- 66
2020-01-20 19:00:00 4.8 0 Calma 9 Oeste 0 -- -- 64
2020-01-20 18:00:00 5.4 6 Noroeste 14 Norte 0 -- -- 60
2020-01-20 17:00:00 5.8 4 Sudoeste 19 Sur 0 -- -- 55
2020-01-20 16:00:00 6.2 10 Sur 24 Sur 0 -- -- 51
2020-01-20 15:00:00 6.8 6 Sur 14 Sudoeste 0 -- -- 45
2020-01-20 14:00:00 5.9 4 Sudeste 20 Sudeste 0 -- -- 46
2020-01-20 13:00:00 6.5 8 Sur 13 Sudeste 0 -- -- 46
2020-01-20 12:00:00 5 5 Sur 13 Sudeste 0 -- -- 48
2020-01-20 11:00:00 3.4 0 Calma 5 Sur 0 -- -- 48
2020-01-20 10:00:00 2.7 2 Norte 5 Noroeste 0 -- -- 44
2020-01-20 09:00:00 1 3 Sudoeste 14 Noroeste 0 -- -- 45
2020-01-20 08:00:00 0.4 8 Noroeste 15 Noroeste 0 -- -- 47
2020-01-20 07:00:00 0.9 5 Noroeste 10 Nordeste 0 -- -- 46
2020-01-20 06:00:00 2.1 3 Norte 25 Nordeste 0 -- -- 42
2020-01-20 05:00:00 3.4 15 Norte 39 Nordeste 0 -- -- 39
2020-01-20 04:00:00 3.9 14 Norte 38 Nordeste 0 -- -- 38
2020-01-20 03:00:00 3.8 17 Nordeste 50 Nordeste 0 -- -- 41
2020-01-20 02:00:00 3.8 30 Nordeste 66 Nordeste 0 -- -- 41
2020-01-20 01:00:00 3.9 35 Nordeste 80 Nordeste 0 -- -- 42
2020-01-20 00:00:00 3.9 46 Nordeste 87 Nordeste 0 -- -- 42
2020-01-19 23:00:00 3.9 44 Nordeste 94 Nordeste 0 -- -- 42
2020-01-19 22:00:00 4.8 50 Nordeste 96 Nordeste 0 -- -- 37
2020-01-19 21:00:00 5.3 54 Nordeste 124 Nordeste 0 -- -- 30
2020-01-19 20:00:00 6 54 Nordeste 123 Nordeste 0 -- -- 35
2020-01-19 19:00:00 6.8 72 Nordeste 130 Nordeste 0 -- -- 37
2020-01-19 18:00:00 8.4 31 Este 67 Nordeste 0 -- -- 33
2020-01-19 17:00:00 9.5 31 Sudeste 63 Sudeste 0 -- -- 28
2020-01-19 16:00:00 9.4 33 Norte 74 Nordeste 0 -- -- 36
2020-01-19 15:00:00 9.2 29 Nordeste 73 Norte 0 -- -- 40
2020-01-19 14:00:00 8.6 19 Norte 58 Nordeste 0 -- -- 47
2020-01-19 13:00:00 10.3 6 Nordeste 46 Nordeste 0 -- -- 45
2020-01-19 12:00:00 9.5 19 Este 69 Este 0 -- -- 51
2020-01-19 11:00:00 9.6 9 Nordeste 43 Nordeste 0 -- -- 55
2020-01-19 10:00:00 7.9 15 Norte 54 Norte 0 -- -- 63
2020-01-19 09:00:00 7.4 30 Nordeste 53 Nordeste 0 -- -- 63
2020-01-19 08:00:00 7.3 29 Nordeste 62 Nordeste 0 -- -- 63
2020-01-19 07:00:00 6.9 9 Nordeste 40 Este 0 -- -- 66
2020-01-19 06:00:00 7.3 13 Este 49 Nordeste 0 -- -- 66
2020-01-19 05:00:00 7.1 25 Norte 63 Noroeste 0 -- -- 74
2020-01-19 04:00:00 7.3 38 Norte 59 Norte 0 -- -- 75
2020-01-19 03:00:00 7.1 27 Norte 42 Norte 0 -- -- 78
2020-01-19 02:00:00 6.7 16 Noroeste 30 Noroeste 0 -- -- 82
2020-01-19 01:00:00 6.8 17 Norte 29 Noroeste 0 -- -- 78
2020-01-19 00:00:00 6.8 20 Noroeste 55 Norte 0 -- -- 79
2020-01-18 23:00:00 7.8 20 Norte 39 Norte 0.2 -- -- 76
2020-01-18 22:00:00 8 15 Norte 50 Noroeste 0.2 -- -- 85
2020-01-18 21:00:00 9.9 12 Noroeste 45 Noroeste 0 -- -- 85
2020-01-18 20:00:00 10 21 Noroeste 48 Noroeste 0 -- -- 87
2020-01-18 19:00:00 10 11 Noroeste 29 Noroeste 0.2 -- -- 92
2020-01-18 18:00:00 8.8 3 Sur 10 Sudoeste 0 -- -- 99
2020-01-18 17:00:00 9.1 0 Calma 5 Sudeste 0 -- -- 99
2020-01-18 16:00:00 8.8 2 Sudeste 4 Sudeste 0.2 -- -- 99
2020-01-18 15:00:00 8.6 0 Calma 4 Noroeste 0 -- -- 99
2020-01-18 14:00:00 8.3 4 Noroeste 6 Noroeste 0 -- -- 100
2020-01-18 13:00:00 7.5 0 Calma 4 Oeste 0.4 -- -- 99
2020-01-18 12:00:00 7.2 0 Calma 9 Sudoeste 1 -- -- 99
2020-01-18 11:00:00 6.6 2 Sur 9 Sudoeste 1.6 -- -- 100
2020-01-18 10:00:00 6.4 5 Sudoeste 10 Sudoeste 2.2 -- -- 100
2020-01-18 09:00:00 6.5 0 Calma 14 Sur 1.4 -- -- 100
2020-01-18 08:00:00 6.8 4 Sudoeste 11 Sudoeste 1 -- -- 99
2020-01-18 07:00:00 6.9 3 Nordeste 8 Oeste 1.8 -- -- 98
2020-01-18 06:00:00 7.1 0 Calma 6 Noroeste 2.8 -- -- 97
2020-01-18 05:00:00 7.4 0 Calma 9 Noroeste 1.6 -- -- 93
2020-01-18 04:00:00 7.7 5 Noroeste 8 Noroeste 0.2 -- -- 89
2020-01-18 03:00:00 7.8 4 Noroeste 10 Norte 0 -- -- 81
2020-01-18 02:00:00 7.5 5 Norte 9 Norte 0 -- -- 82
2020-01-18 01:00:00 7.6 3 Norte 6 Sur 0 -- -- 84
2020-01-18 00:00:00 7.5 3 Noroeste 10 Noroeste 0 -- -- 84
2020-01-17 23:00:00 7.9 3 Sudoeste 10 Sudoeste 0 -- -- 83
2020-01-17 22:00:00 7.9 0 Calma 4 Oeste 0 -- -- 81
2020-01-17 21:00:00 8.3 0 Calma 12 Norte 0 -- -- 79
2020-01-17 20:00:00 8 4 Norte 14 Noroeste 0 -- -- 81
2020-01-17 19:00:00 8 9 Noroeste 15 Noroeste 0 -- -- 80
2020-01-17 18:00:00 8.9 12 Noroeste 24 Noroeste 0 -- -- 65
2020-01-17 17:00:00 10.5 14 Noroeste 25 Noroeste 0 -- -- 66
2020-01-17 16:00:00 12.1 18 Noroeste 27 Noroeste 0 -- -- 60
2020-01-17 15:00:00 12.2 15 Noroeste 31 Noroeste 0 -- -- 62
2020-01-17 14:00:00 12.1 10 Noroeste 31 Noroeste 0 -- -- 67
2020-01-17 13:00:00 12.5 13 Noroeste 26 Noroeste 0 -- -- 71
2020-01-17 12:00:00 10.7 12 Noroeste 31 Noroeste 0 -- -- 77
2020-01-17 11:00:00 9 10 Noroeste 33 Noroeste 0.2 -- -- 86
2020-01-17 10:00:00 8.3 11 Norte 38 Noroeste 0.2 -- -- 93
2020-01-17 09:00:00 7.9 6 Norte 24 Noroeste 0 -- -- 89
2020-01-17 08:00:00 7.8 9 Noroeste 23 Noroeste 0 -- -- 88
2020-01-17 07:00:00 7.8 8 Noroeste 24 Noroeste 0 -- -- 87
2020-01-17 06:00:00 7.1 6 Norte 21 Norte 0 -- -- 89
2020-01-17 05:00:00 7.3 10 Noroeste 21 Noroeste 0 -- -- 87
2020-01-17 04:00:00 6.6 0 Calma 6 Oeste 0 -- -- 96
2020-01-17 03:00:00 7.1 0 Calma 6 Noroeste 0 -- -- 94
2020-01-17 02:00:00 7.7 0 Calma 5 Norte 0 -- -- 93
2020-01-17 01:00:00 7.6 4 Noroeste 8 Noroeste 0 -- -- 94
2020-01-17 00:00:00 7.6 2 Noroeste 9 Oeste 0 -- -- 91
2020-01-16 23:00:00 7.4 6 Norte 17 Nordeste 0.8 -- -- 93
2020-01-16 22:00:00 8.1 3 Norte 21 Sur 2 -- -- 89
2020-01-16 21:00:00 8.9 4 Noroeste 11 Este 0.2 -- -- 78
2020-01-16 20:00:00 8.9 3 Oeste 8 Sudoeste 0 -- -- 86
2020-01-16 19:00:00 9 5 Sudoeste 12 Sudoeste 0 -- -- 86
2020-01-16 18:00:00 10.3 7 Sur 15 Sur 0 -- -- 83
2020-01-16 17:00:00 11.3 8 Sudeste 23 Sur 0 -- -- 79
2020-01-16 16:00:00 11.8 7 Sudeste 20 Sur 0 -- -- 75
2020-01-16 15:00:00 12.1 8 Sudeste 17 Sur 0 -- -- 79
2020-01-16 14:00:00 12 8 Sudeste 17 Sur 0 -- -- 77
2020-01-16 13:00:00 11.4 8 Sudeste 13 Sudeste 0 -- -- 82
2020-01-16 12:00:00 10.6 5 Sur 10 Sur 0 -- -- 87
2020-01-16 11:00:00 8.7 3 Noroeste 4 Noroeste 0 -- -- 100
2020-01-16 10:00:00 7.9 3 Sudoeste 5 Norte 0 -- -- 100
2020-01-16 09:00:00 7.8 0 Calma 9 Sudoeste 0.4 -- -- 100
2020-01-16 08:00:00 7.6 2 Sur 4 Sudoeste 0.8 -- -- 100
2020-01-16 07:00:00 7.6 0 Calma 9 Sudoeste 2 -- -- 100
2020-01-16 06:00:00 7.6 0 Calma 5 Nordeste 0.4 -- -- 100
2020-01-16 05:00:00 7.7 0 Calma 12 Sudoeste 2 -- -- 100
2020-01-16 04:00:00 7.6 3 Sur 10 Sur 1.4 -- -- 100
2020-01-16 03:00:00 7.5 0 Calma 3 Noroeste 2.2 -- -- 100
2020-01-16 02:00:00 7.6 2 Sudoeste 9 Oeste 0.4 -- -- 100
2020-01-16 01:00:00 7.5 3 Sudeste 9 Sur 1.6 -- -- 100
2020-01-16 00:00:00 7.3 0 Calma 4 Noroeste 2.4 -- -- 100
2020-01-15 23:00:00 7.2 0 Calma 2 Noroeste 0.2 -- -- 100
2020-01-15 22:00:00 7.2 0 Calma 5 Sudoeste 3 -- -- 100
2020-01-15 21:00:00 7.2 0 Calma 6 Sudoeste 2 -- -- 100
2020-01-15 20:00:00 6.9 2 Norte 4 Norte 0.4 -- -- 100
2020-01-15 19:00:00 6.9 0 Calma 6 Nordeste 0 -- -- 100
2020-01-15 18:00:00 6.7 2 Nordeste 7 Noroeste 0 -- -- 100
2020-01-15 17:00:00 6.8 0 Calma 8 Sur 0.2 -- -- 100
2020-01-15 16:00:00 7.1 3 Sur 6 Sur 1.6 -- -- 100
2020-01-15 15:00:00 7.3 2 Sur 8 Sudoeste 1.8 -- -- 100
2020-01-15 14:00:00 7.1 0 Calma 3 Norte 3 -- -- 100
2020-01-15 13:00:00 7 0 Calma 5 Sudoeste 4 -- -- 99
2020-01-15 12:00:00 6.7 5 Sudoeste 9 Sur 5.4 -- -- 98
2020-01-15 11:00:00 6.5 3 Noroeste 7 Noroeste 1.2 -- -- 97
2020-01-15 10:00:00 6.2 0 Calma 6 Norte 1.4 -- -- 97
2020-01-15 09:00:00 5.9 4 Noroeste 8 Este 2.4 -- -- 98
2020-01-15 08:00:00 6 2 Noroeste 6 Sudoeste 3.6 -- -- 96
2020-01-15 07:00:00 6.7 0 Calma 5 Oeste 0.2 -- -- 89
2020-01-15 06:00:00 6.5 0 Calma 9 Noroeste 0 -- -- 89
2020-01-15 05:00:00 6.5 0 Calma 8 Este 0 -- -- 90
2020-01-15 04:00:00 6.9 2 Este 10 Este 0 -- -- 92
2020-01-15 03:00:00 6.9 3 Sudoeste 12 Sur 0 -- -- 93
2020-01-15 02:00:00 6.7 0 Calma 4 Nordeste 0 -- -- 95
2020-01-15 01:00:00 6.7 0 Calma 5 Norte 0 -- -- 94
2020-01-15 00:00:00 6.5 3 Norte 5 Norte 0.4 -- -- 96
2020-01-14 23:00:00 6.5 2 Norte 8 Noroeste 0 -- -- 96
2020-01-14 22:00:00 6.1 2 Norte 7 Nordeste 0 -- -- 96
2020-01-14 21:00:00 5.9 4 Norte 8 Norte 1 -- -- 95
2020-01-14 20:00:00 6.1 3 Norte 6 Norte 1.4 -- -- 93
2020-01-14 19:00:00 6.7 3 Norte 5 Norte 0 -- -- 88
2020-01-14 18:00:00 7.5 2 Sur 5 Sudeste 0 -- -- 75
2020-01-14 17:00:00 7.7 0 Calma 3 Este 0 -- -- 71
2020-01-14 16:00:00 7.8 2 Sur 5 Este 0 -- -- 70
2020-01-14 15:00:00 7.5 2 Sudeste 4 Sudeste 0 -- -- 71
2020-01-14 14:00:00 7 2 Este 5 Sudeste 0 -- -- 73
2020-01-14 13:00:00 6.3 2 Nordeste 12 Sur 0 -- -- 71
2020-01-14 12:00:00 5.6 0 Calma 3 Este 0 -- -- 74
2020-01-14 11:00:00 4.9 2 Este 4 Nordeste 0 -- -- 74
2020-01-14 10:00:00 3.3 0 Calma 3 Sur 0 -- -- 77
2020-01-14 09:00:00 2.3 0 Calma 5 Noroeste 0 -- -- 79
2020-01-14 08:00:00 2.1 0 Calma 8 Norte 0 -- -- 78
2020-01-14 07:00:00 2.4 4 Nordeste 10 Noroeste 0 -- -- 79
2020-01-14 06:00:00 2.7 0 Calma 10 Noroeste 0 -- -- 72
2020-01-14 05:00:00 3.2 0 Calma 10 Noroeste 0 -- -- 70
2020-01-14 04:00:00 3.6 6 Noroeste 10 Noroeste 0 -- -- 59
2020-01-14 03:00:00 3.7 3 Sudoeste 13 Noroeste 0 -- -- 63
2020-01-14 02:00:00 3.8 4 Noroeste 14 Noroeste 0 -- -- 61
2020-01-14 01:00:00 4.1 2 Oeste 6 Noroeste 0 -- -- 78
2020-01-14 00:00:00 4.2 4 Noroeste 8 Noroeste 0 -- -- 73
2020-01-13 23:00:00 4 4 Noroeste 12 Norte 0 -- -- 78
2020-01-13 22:00:00 4.2 3 Oeste 10 Noroeste 0 -- -- 74
2020-01-13 21:00:00 4.5 2 Noroeste 14 Noroeste 0 -- -- 72
2020-01-13 20:00:00 4.8 5 Noroeste 10 Noroeste 0 -- -- 69
2020-01-13 19:00:00 5 8 Noroeste 13 Noroeste 0 -- -- 65
2020-01-13 18:00:00 6.5 0 Calma 7 Sur 0 -- -- 60
2020-01-13 17:00:00 9 5 Sur 11 Sudeste 0 -- -- 58
2020-01-13 16:00:00 9.9 4 Sur 14 Sur 0 -- -- 57
2020-01-13 15:00:00 9.1 6 Sur 12 Sur 0 -- -- 63
2020-01-13 14:00:00 8.8 8 Sur 13 Sudeste 0 -- -- 65
2020-01-13 13:00:00 8.4 5 Sur 10 Sudeste 0 -- -- 57
2020-01-13 12:00:00 6.5 2 Este 6 Sudeste 0 -- -- 61
2020-01-13 11:00:00 5.5 2 Sudeste 5 Sur 0 -- -- 61
2020-01-13 10:00:00 4.3 0 Calma 4 Norte 0 -- -- 59
2020-01-13 09:00:00 3.1 0 Calma 11 Noroeste 0 -- -- 58
2020-01-13 08:00:00 2.6 7 Norte 12 Noroeste 0 -- -- 60
2020-01-13 07:00:00 3.5 0 Calma 3 Sur 0 -- -- 60
2020-01-13 06:00:00 4.3 0 Calma 5 Noroeste 0 -- -- 57
2020-01-13 05:00:00 4.3 2 Noroeste 8 Noroeste 0 -- -- 57
2020-01-13 04:00:00 4.7 0 Calma 3 Sur 0 -- -- 59
2020-01-13 03:00:00 4.6 3 Norte 5 Norte 0 -- -- 60
2020-01-13 02:00:00 4.3 3 Noroeste 9 Norte 0 -- -- 63
2020-01-13 01:00:00 4.3 0 Calma 3 Sudoeste 0 -- -- 66
2020-01-13 00:00:00 5.1 0 Calma 5 Noroeste 0 -- -- 68
2020-01-12 23:00:00 5.1 0 Calma 3 Sudoeste 0 -- -- 70
2020-01-12 22:00:00 5.6 0 Calma 5 Sudoeste 0 -- -- 70
2020-01-12 21:00:00 5.8 0 Calma 8 Noroeste 0 -- -- 70
2020-01-12 20:00:00 6.3 6 Noroeste 8 Noroeste 0 -- -- 68
2020-01-12 19:00:00 5.9 5 Noroeste 9 Noroeste 0 -- -- 70
2020-01-12 18:00:00 6.1 0 Calma 4 Noroeste 0 -- -- 72
2020-01-12 17:00:00 8.3 4 Sudoeste 10 Sur 0 -- -- 64
2020-01-12 16:00:00 10.1 6 Sur 12 Sur 0 -- -- 59
2020-01-12 15:00:00 9.5 6 Sur 15 Sudeste 0 -- -- 60
2020-01-12 14:00:00 9.6 8 Sur 14 Sur 0 -- -- 58
2020-01-12 13:00:00 9.1 6 Sur 11 Sudeste 0 -- -- 53
2020-01-12 12:00:00 8.1 5 Sudeste 10 Sudeste 0 -- -- 55
2020-01-12 11:00:00 6.8 3 Sudeste 8 Sudeste 0 -- -- 49
2020-01-12 10:00:00 5.7 0 Calma 4 Noroeste 0 -- -- 48
2020-01-12 09:00:00 3.3 3 Noroeste 6 Noroeste 0 -- -- 47
2020-01-12 08:00:00 3.5 0 Calma 7 Noroeste 0 -- -- 48
2020-01-12 07:00:00 3.9 3 Noroeste 8 Noroeste 0 -- -- 44
2020-01-12 06:00:00 4.5 2 Oeste 8 Norte 0 -- -- 42
2020-01-12 05:00:00 4.6 0 Calma 11 Noroeste 0 -- -- 45
2020-01-12 04:00:00 5.4 3 Noroeste 5 Noroeste 0 -- -- 40
2020-01-12 03:00:00 5.3 6 Noroeste 13 Noroeste 0 -- -- 40
2020-01-12 02:00:00 5.7 4 Noroeste 10 Noroeste 0 -- -- 40
2020-01-12 01:00:00 5.5 6 Noroeste 11 Noroeste 0 -- -- 40
2020-01-12 00:00:00 5.6 2 Noroeste 11 Noroeste 0 -- -- 43
2020-01-11 23:00:00 5.7 7 Noroeste 12 Noroeste 0 -- -- 42
2020-01-11 22:00:00 6.1 8 Noroeste 13 Noroeste 0 -- -- 41
2020-01-11 21:00:00 6.2 5 Noroeste 9 Noroeste 0 -- -- 42
2020-01-11 20:00:00 6.3 5 Noroeste 11 Noroeste 0 -- -- 36
2020-01-11 19:00:00 6 5 Noroeste 12 Noroeste 0 -- -- 44
2020-01-11 18:00:00 6.9 0 Calma 4 Sudoeste 0 -- -- 58
2020-01-11 17:00:00 8.9 0 Calma 8 Sur 0 -- -- 54
2020-01-11 16:00:00 10.8 5 Sur 11 Sur 0 -- -- 50
2020-01-11 15:00:00 10.5 6 Sur 13 Sur 0 -- -- 49
2020-01-11 14:00:00 10.1 8 Sur 15 Sur 0 -- -- 51
2020-01-11 13:00:00 9.1 7 Sur 11 Sudeste 0 -- -- 58
2020-01-11 12:00:00 7.6 5 Sudeste 12 Sur 0 -- -- 63
2020-01-11 11:00:00 7.4 8 Sudeste 12 Sur 0 -- -- 62
2020-01-11 10:00:00 5.4 0 Calma 8 Noroeste 0 -- -- 66
2020-01-11 09:00:00 2.7 5 Noroeste 9 Noroeste 0 -- -- 77
2020-01-11 08:00:00 3 0 Calma 7 Noroeste 0 -- -- 74
2020-01-11 07:00:00 3.1 6 Noroeste 13 Noroeste 0 -- -- 71
2020-01-11 06:00:00 3.8 2 Sudoeste 4 Oeste 0 -- -- 69
2020-01-11 05:00:00 3.8 0 Calma 8 Noroeste 0 -- -- 65
2020-01-11 04:00:00 3.8 4 Noroeste 12 Sur 0 -- -- 63
2020-01-11 03:00:00 5.6 3 Sudoeste 11 Noroeste 0 -- -- 55
2020-01-11 02:00:00 5.8 2 Noroeste 13 Noroeste 0 -- -- 52
2020-01-11 01:00:00 5.7 8 Noroeste 15 Noroeste 0 -- -- 53
2020-01-11 00:00:00 6.3 3 Oeste 13 Noroeste 0 -- -- 52
2020-01-10 23:00:00 5.1 9 Noroeste 16 Noroeste 0 -- -- 62
2020-01-10 22:00:00 6.1 5 Noroeste 12 Noroeste 0 -- -- 58
2020-01-10 21:00:00 6.4 2 Oeste 17 Noroeste 0 -- -- 57
2020-01-10 20:00:00 5.6 8 Noroeste 16 Noroeste 0 -- -- 61
2020-01-10 19:00:00 6.1 7 Noroeste 15 Noroeste 0 -- -- 59
2020-01-10 18:00:00 7.4 6 Noroeste 9 Noroeste 0 -- -- 56
2020-01-10 17:00:00 9.3 5 Sur 21 Sudeste 0 -- -- 51
2020-01-10 16:00:00 11.1 8 Sudeste 17 Sudeste 0 -- -- 51
2020-01-10 15:00:00 10.1 4 Sudeste 17 Sur 0 -- -- 60
2020-01-10 14:00:00 10 4 Sur 13 Sur 0 -- -- 60
2020-01-10 13:00:00 9.2 6 Sudeste 17 Sudeste 0 -- -- 62
2020-01-10 12:00:00 9.1 12 Sur 21 Sudeste 0 -- -- 66
2020-01-10 11:00:00 8.6 2 Este 7 Oeste 0 -- -- 59
2020-01-10 10:00:00 7.1 3 Sudoeste 8 Sur 0 -- -- 70
2020-01-10 09:00:00 5 6 Sudoeste 10 Oeste 0 -- -- 72
2020-01-10 08:00:00 4.8 0 Calma 10 Norte 0 -- -- 77
2020-01-10 07:00:00 4.8 0 Calma 9 Noroeste 0 -- -- 81
2020-01-10 06:00:00 5.5 6 Oeste 9 Noroeste 0 -- -- 77
2020-01-10 05:00:00 5.9 2 Norte 6 Norte 0 -- -- 72
2020-01-10 04:00:00 6.3 3 Sudoeste 9 Sudoeste 0 -- -- 73
2020-01-10 03:00:00 5.8 4 Sudoeste 31 Norte 0 -- -- 72
2020-01-10 02:00:00 8.9 17 Norte 41 Norte 0 -- -- 45
2020-01-10 01:00:00 9.4 19 Norte 44 Norte 0 -- -- 57
2020-01-10 00:00:00 8.6 19 Noroeste 45 Norte 0 -- -- 70
2020-01-09 23:00:00 9.5 17 Norte 36 Noroeste 0 -- -- 71
2020-01-09 22:00:00 6.8 2 Noroeste 16 Sudoeste 0 -- -- 83
2020-01-09 21:00:00 11.5 9 Norte 49 Norte 0 -- -- 67
2020-01-09 20:00:00 9 10 Norte 26 Norte 0 -- -- 79
2020-01-09 19:00:00 7.8 4 Sudoeste 9 Sudoeste 0 -- -- 81
2020-01-09 18:00:00 8.2 3 Sudoeste 9 Sudoeste 0 -- -- 75
2020-01-09 17:00:00 10.2 4 Sur 12 Sur 0 -- -- 68
2020-01-09 16:00:00 11.5 5 Sur 13 Sur 0 -- -- 63
2020-01-09 15:00:00 10.8 6 Sudeste 13 Sur 0 -- -- 65
2020-01-09 14:00:00 10.9 9 Sur 17 Sur 0 -- -- 64
2020-01-09 13:00:00 10.5 6 Sudeste 14 Sudeste 0 -- -- 66
2020-01-09 12:00:00 10 5 Sur 10 Sudeste 0 -- -- 66
2020-01-09 11:00:00 9.7 3 Sudeste 8 Sudeste 0 -- -- 63
2020-01-09 10:00:00 7.7 0 Calma 5 Sudeste 0 -- -- 63
2020-01-09 09:00:00 5.8 0 Calma 4 Oeste 0 -- -- 72
2020-01-09 08:00:00 6.2 0 Calma 8 Sudoeste 0 -- -- 69
2020-01-09 07:00:00 6.7 4 Sudoeste 8 Sudoeste 0 -- -- 65
2020-01-09 06:00:00 6.2 0 Calma 8 Sudoeste 0 -- -- 56
2020-01-09 05:00:00 7.1 3 Sudoeste 10 Noroeste 0 -- -- 53
2020-01-09 04:00:00 7.4 0 Calma 7 Noroeste 0 -- -- 55
2020-01-09 03:00:00 9 3 Noroeste 9 Noroeste 0 -- -- 48
2020-01-09 02:00:00 8.2 5 Noroeste 10 Noroeste 0 -- -- 54
2020-01-09 01:00:00 8.1 3 Sudeste 8 Sudoeste 0 -- -- 52
2020-01-09 00:00:00 8.1 4 Sudoeste 8 Sudoeste 0 -- -- 43
2020-01-08 23:00:00 9.1 0 Calma 4 Noroeste 0 -- -- 40
2020-01-08 22:00:00 9 0 Calma 5 Sudoeste 0 -- -- 46
2020-01-08 21:00:00 9.5 3 Noroeste 10 Noroeste 0 -- -- 49
2020-01-08 20:00:00 9.6 2 Sur 5 Sudoeste 0 -- -- 56
2020-01-08 19:00:00 10.1 0 Calma 6 Noroeste 0 -- -- 53
2020-01-08 18:00:00 10.3 2 Oeste 5 Noroeste 0 -- -- 59
2020-01-08 17:00:00 12.1 0 Calma 3 Sudeste 0 -- -- 60
2020-01-08 16:00:00 13.6 2 Sur 10 Sur 0 -- -- 56
2020-01-08 15:00:00 13.1 4 Sudeste 10 Sudeste 0 -- -- 59
2020-01-08 14:00:00 12.7 5 Sur 10 Sudeste 0 -- -- 62
2020-01-08 13:00:00 12.1 5 Sudeste 9 Sudeste 0 -- -- 59
2020-01-08 12:00:00 11.7 4 Sur 7 Sudeste 0 -- -- 56
2020-01-08 11:00:00 10.1 0 Calma 4 Sudeste 0 -- -- 51
2020-01-08 10:00:00 7 0 Calma 5 Norte 0 -- -- 47
2020-01-08 09:00:00 5.2 2 Norte 4 Norte 0 -- -- 50
2020-01-08 08:00:00 4.7 0 Calma 4 Noroeste 0 -- -- 52
2020-01-08 07:00:00 5.9 4 Sur 5 Sur 0 -- -- 50
2020-01-08 06:00:00 5.2 0 Calma 6 Noroeste 0 -- -- 51
2020-01-08 05:00:00 6.2 0 Calma 4 Sur 0 -- -- 57
2020-01-08 04:00:00 7.1 0 Calma 4 Norte 0 -- -- 48
2020-01-08 03:00:00 7.6 0 Calma 4 Noroeste 0 -- -- 48
2020-01-08 02:00:00 7.7 0 Calma 3 Norte 0 -- -- 49
2020-01-08 01:00:00 7.6 0 Calma 4 Noroeste 0 -- -- 53
2020-01-08 00:00:00 8.3 0 Calma 5 Noroeste 0 -- -- 55
2020-01-07 23:00:00 8.3 0 Calma 4 Norte 0 -- -- 58
2020-01-07 22:00:00 8.4 0 Calma 6 Oeste 0 -- -- 59
2020-01-07 21:00:00 8.3 0 Calma 5 Noroeste 0 -- -- 63
2020-01-07 20:00:00 8.4 0 Calma 5 Noroeste 0 -- -- 65
2020-01-07 19:00:00 8.5 2 Noroeste 7 Norte 0 -- -- 64
2020-01-07 18:00:00 9 0 Calma 5 Noroeste 0 -- -- 68
2020-01-07 17:00:00 11 2 Sudoeste 9 Sur 0 -- -- 63
2020-01-07 16:00:00 13.5 6 Sur 9 Sur 0 -- -- 52
2020-01-07 15:00:00 13 4 Sur 11 Sur 0 -- -- 49
2020-01-07 14:00:00 12.7 6 Sur 11 Sudeste 0 -- -- 51
2020-01-07 13:00:00 11.2 5 Sudeste 10 Sudeste 0 -- -- 60
2020-01-07 12:00:00 9.7 2 Este 7 Este 0 -- -- 65
2020-01-07 11:00:00 7.8 0 Calma 5 Este 0 -- -- 68
2020-01-07 10:00:00 8.8 0 Calma 2 Nordeste 0 -- -- 49
2020-01-07 09:00:00 7.5 3 Noroeste 5 Noroeste 0 -- -- 42
2020-01-07 08:00:00 7.2 0 Calma 6 Noroeste 0 -- -- 49
2020-01-07 07:00:00 7.1 0 Calma 4 Sudoeste 0 -- -- 47
2020-01-07 06:00:00 7 2 Noroeste 5 Noroeste 0 -- -- 42
2020-01-07 05:00:00 6.6 2 Norte 4 Norte 0 -- -- 47
2020-01-07 04:00:00 6.1 0 Calma 5 Noroeste 0 -- -- 62
2020-01-07 03:00:00 6.3 0 Calma 4 Sudoeste 0 -- -- 64
2020-01-07 02:00:00 6.8 0 Calma 7 Sudoeste 0 -- -- 66
2020-01-07 01:00:00 7.8 0 Calma 5 Noroeste 0 -- -- 50
2020-01-07 00:00:00 8 2 Noroeste 8 Noroeste 0 -- -- 52
2020-01-06 23:00:00 8.2 0 Calma 5 Noroeste 0 -- -- 51
2020-01-06 22:00:00 8.3 2 Noroeste 5 Noroeste 0 -- -- 48
2020-01-06 21:00:00 8.2 2 Noroeste 10 Noroeste 0 -- -- 49
2020-01-06 20:00:00 8.2 0 Calma 6 Norte 0 -- -- 64
2020-01-06 19:00:00 8.3 2 Noroeste 5 Noroeste 0 -- -- 63
2020-01-06 18:00:00 8.7 0 Calma 3 Noroeste 0 -- -- 70
2020-01-06 17:00:00 10.4 0 Calma 7 Sur 0 -- -- 64
2020-01-06 16:00:00 12.3 5 Sur 9 Sur 0 -- -- 58
2020-01-06 15:00:00 11.9 6 Sudeste 11 Sur 0 -- -- 58
2020-01-06 14:00:00 11.7 8 Sur 12 Sudeste 0 -- -- 59
2020-01-06 13:00:00 11.1 6 Sudeste 12 Sur 0 -- -- 58
2020-01-06 12:00:00 10.1 6 Sudeste 10 Sudeste 0 -- -- 59
2020-01-06 11:00:00 8.6 2 Sudeste 5 Este 0 -- -- 58
2020-01-06 10:00:00 6.3 0 Calma 7 Sudoeste 0 -- -- 63